sensor_id;sensor_type;location;lat;lon;timestamp;pressure;altitude;pressure_sealevel;temperature;humidity
11621;BME280;5866;49.094;11.900;2023-08-06T00:00:10;95462.34;;;17.82;100.00
11621;BME280;5866;49.094;11.900;2023-08-06T00:02:37;95463.31;;;17.69;100.00
11621;BME280;5866;49.094;11.900;2023-08-06T00:05:06;95460.97;;;17.36;100.00
11621;BME280;5866;49.094;11.900;2023-08-06T00:07:33;95460.63;;;17.51;100.00
11621;BME280;5866;49.094;11.900;2023-08-06T00:10:01;95457.66;;;17.59;100.00
11621;BME280;5866;49.094;11.900;2023-08-06T00:12:29;95467.09;;;17.62;100.00
11621;BME280;5866;49.094;11.900;2023-08-06T00:14:57;95464.81;;;17.65;100.00
11621;BME280;5866;49.094;11.900;2023-08-06T00:17:27;95452.63;;;16.84;100.00
11621;BME280;5866;49.094;11.900;2023-08-06T00:19:55;95442.50;;;16.30;100.00
11621;BME280;5866;49.094;11.900;2023-08-06T00:22:24;95467.84;;;15.89;100.00
11621;BME280;5866;49.094;11.900;2023-08-06T00:24:54;95480.03;;;15.79;100.00
11621;BME280;5866;49.094;11.900;2023-08-06T00:27:23;95481.31;;;15.63;100.00
11621;BME280;5866;49.094;11.900;2023-08-06T00:29:51;95482.03;;;15.90;100.00
11621;BME280;5866;49.094;11.900;2023-08-06T00:32:20;95474.25;;;16.57;100.00
11621;BME280;5866;49.094;11.900;2023-08-06T00:34:48;95478.81;;;16.82;100.00
11621;BME280;5866;49.094;11.900;2023-08-06T00:37:16;95478.56;;;16.27;100.00
11621;BME280;5866;49.094;11.900;2023-08-06T00:39:44;95488.34;;;15.51;100.00
11621;BME280;5866;49.094;11.900;2023-08-06T00:42:12;95486.31;;;15.34;100.00
11621;BME280;5866;49.094;11.900;2023-08-06T00:44:39;95487.13;;;15.34;100.00
11621;BME280;5866;49.094;11.900;2023-08-06T00:47:07;95485.09;;;15.23;100.00
11621;BME280;5866;49.094;11.900;2023-08-06T00:49:36;95491.50;;;15.16;100.00
11621;BME280;5866;49.094;11.900;2023-08-06T00:52:05;95483.47;;;15.16;100.00
11621;BME280;5866;49.094;11.900;2023-08-06T00:54:34;95491.28;;;15.04;100.00
11621;BME280;5866;49.094;11.900;2023-08-06T00:57:03;95487.81;;;14.90;100.00
11621;BME280;5866;49.094;11.900;2023-08-06T00:59:31;95490.69;;;14.95;100.00
11621;BME280;5866;49.094;11.900;2023-08-06T01:01:59;95486.16;;;14.89;100.00
11621;BME280;5866;49.094;11.900;2023-08-06T01:04:27;95492.94;;;14.79;100.00
11621;BME280;5866;49.094;11.900;2023-08-06T01:07:03;95493.56;;;14.61;100.00
11621;BME280;5866;49.094;11.900;2023-08-06T01:09:38;95502.19;;;14.70;100.00
11621;BME280;5866;49.094;11.900;2023-08-06T01:12:18;95497.03;;;14.49;100.00
11621;BME280;5866;49.094;11.900;2023-08-06T01:14:53;95498.66;;;14.30;100.00
11621;BME280;5866;49.094;11.900;2023-08-06T01:17:23;95492.63;;;14.15;100.00
11621;BME280;5866;49.094;11.900;2023-08-06T01:19:53;95480.94;;;14.16;100.00
11621;BME280;5866;49.094;11.900;2023-08-06T01:22:22;95483.28;;;14.32;100.00
11621;BME280;5866;49.094;11.900;2023-08-06T01:24:50;95477.34;;;14.43;100.00
11621;BME280;5866;49.094;11.900;2023-08-06T01:27:24;95478.19;;;14.70;100.00
11621;BME280;5866;49.094;11.900;2023-08-06T01:29:57;95465.41;;;14.91;100.00
11621;BME280;5866;49.094;11.900;2023-08-06T01:32:29;95461.94;;;14.71;100.00
11621;BME280;5866;49.094;11.900;2023-08-06T01:35:00;95467.09;;;14.53;100.00
11621;BME280;5866;49.094;11.900;2023-08-06T01:37:29;95473.22;;;14.54;100.00
11621;BME280;5866;49.094;11.900;2023-08-06T01:39:57;95470.16;;;14.50;100.00
11621;BME280;5866;49.094;11.900;2023-08-06T01:42:24;95466.66;;;14.50;100.00
11621;BME280;5866;49.094;11.900;2023-08-06T01:44:52;95459.25;;;14.52;100.00
11621;BME280;5866;49.094;11.900;2023-08-06T01:47:20;95452.28;;;14.38;100.00
11621;BME280;5866;49.094;11.900;2023-08-06T01:49:47;95453.09;;;14.38;100.00
11621;BME280;5866;49.094;11.900;2023-08-06T01:52:15;95450.25;;;14.53;100.00
11621;BME280;5866;49.094;11.900;2023-08-06T01:54:44;95435.00;;;15.12;100.00
11621;BME280;5866;49.094;11.900;2023-08-06T01:57:11;95432.94;;;15.07;100.00
11621;BME280;5866;49.094;11.900;2023-08-06T01:59:39;95432.56;;;14.84;100.00
11621;BME280;5866;49.094;11.900;2023-08-06T02:02:07;95434.63;;;14.82;100.00
11621;BME280;5866;49.094;11.900;2023-08-06T02:04:34;95431.84;;;15.35;100.00
11621;BME280;5866;49.094;11.900;2023-08-06T02:07:02;95430.25;;;15.14;100.00
11621;BME280;5866;49.094;11.900;2023-08-06T02:09:30;95436.88;;;14.85;100.00
11621;BME280;5866;49.094;11.900;2023-08-06T02:11:59;95428.84;;;14.92;100.00
11621;BME280;5866;49.094;11.900;2023-08-06T02:14:26;95417.53;;;15.09;100.00
11621;BME280;5866;49.094;11.900;2023-08-06T02:16:54;95408.06;;;15.71;100.00
11621;BME280;5866;49.094;11.900;2023-08-06T02:19:22;95391.81;;;16.10;100.00
11621;BME280;5866;49.094;11.900;2023-08-06T02:21:49;95386.41;;;16.17;100.00
11621;BME280;5866;49.094;11.900;2023-08-06T02:24:17;95389.66;;;16.25;100.00
11621;BME280;5866;49.094;11.900;2023-08-06T02:26:45;95391.59;;;15.74;100.00
11621;BME280;5866;49.094;11.900;2023-08-06T02:29:16;95384.41;;;16.06;100.00
11621;BME280;5866;49.094;11.900;2023-08-06T02:31:44;95389.66;;;16.25;100.00
11621;BME280;5866;49.094;11.900;2023-08-06T02:34:11;95392.31;;;16.25;100.00
11621;BME280;5866;49.094;11.900;2023-08-06T02:36:39;95383.75;;;16.41;100.00
11621;BME280;5866;49.094;11.900;2023-08-06T02:39:06;95375.25;;;16.51;100.00
11621;BME280;5866;49.094;11.900;2023-08-06T02:41:34;95371.97;;;16.42;100.00
11621;BME280;5866;49.094;11.900;2023-08-06T02:44:02;95366.78;;;16.54;100.00
11621;BME280;5866;49.094;11.900;2023-08-06T02:46:30;95370.50;;;16.53;100.00
11621;BME280;5866;49.094;11.900;2023-08-06T02:48:58;95374.78;;;16.79;100.00
11621;BME280;5866;49.094;11.900;2023-08-06T02:51:26;95373.75;;;16.80;100.00
11621;BME280;5866;49.094;11.900;2023-08-06T02:53:53;95368.72;;;16.40;100.00
11621;BME280;5866;49.094;11.900;2023-08-06T02:56:21;95374.28;;;16.39;100.00
11621;BME280;5866;49.094;11.900;2023-08-06T02:58:48;95370.44;;;16.59;100.00
11621;BME280;5866;49.094;11.900;2023-08-06T03:01:16;95366.13;;;16.58;100.00
11621;BME280;5866;49.094;11.900;2023-08-06T03:03:45;95371.84;;;16.37;100.00
11621;BME280;5866;49.094;11.900;2023-08-06T03:06:13;95387.19;;;15.42;100.00
11621;BME280;5866;49.094;11.900;2023-08-06T03:08:40;95387.13;;;15.99;100.00
11621;BME280;5866;49.094;11.900;2023-08-06T03:11:07;95368.41;;;15.99;100.00
11621;BME280;5866;49.094;11.900;2023-08-06T03:13:35;95371.59;;;15.52;100.00
11621;BME280;5866;49.094;11.900;2023-08-06T03:16:02;95378.97;;;14.66;100.00
11621;BME280;5866;49.094;11.900;2023-08-06T03:18:30;95377.28;;;14.91;100.00
11621;BME280;5866;49.094;11.900;2023-08-06T03:20:59;95380.28;;;15.28;100.00
11621;BME280;5866;49.094;11.900;2023-08-06T03:23:27;95389.00;;;14.97;100.00
11621;BME280;5866;49.094;11.900;2023-08-06T03:25:54;95391.22;;;15.70;100.00
11621;BME280;5866;49.094;11.900;2023-08-06T03:28:22;95378.59;;;16.15;100.00
11621;BME280;5866;49.094;11.900;2023-08-06T03:30:58;95378.75;;;16.51;100.00
11621;BME280;5866;49.094;11.900;2023-08-06T03:33:26;95372.69;;;16.62;100.00
11621;BME280;5866;49.094;11.900;2023-08-06T03:35:54;95373.16;;;16.78;100.00
11621;BME280;5866;49.094;11.900;2023-08-06T03:38:23;95361.84;;;16.76;100.00
11621;BME280;5866;49.094;11.900;2023-08-06T03:40:51;95369.44;;;16.79;100.00
11621;BME280;5866;49.094;11.900;2023-08-06T03:43:19;95358.00;;;16.90;100.00
11621;BME280;5866;49.094;11.900;2023-08-06T03:45:46;95361.41;;;16.97;100.00
11621;BME280;5866;49.094;11.900;2023-08-06T03:48:14;95362.28;;;16.91;100.00
11621;BME280;5866;49.094;11.900;2023-08-06T03:50:41;95361.84;;;16.76;100.00
11621;BME280;5866;49.094;11.900;2023-08-06T03:53:09;95366.59;;;16.74;100.00
11621;BME280;5866;49.094;11.900;2023-08-06T03:55:38;95373.28;;;16.64;100.00
11621;BME280;5866;49.094;11.900;2023-08-06T03:58:06;95366.75;;;16.79;100.00
11621;BME280;5866;49.094;11.900;2023-08-06T04:00:33;95377.28;;;16.74;100.00
11621;BME280;5866;49.094;11.900;2023-08-06T04:03:01;95369.69;;;16.52;100.00
11621;BME280;5866;49.094;11.900;2023-08-06T04:05:31;95382.59;;;16.80;100.00
11621;BME280;5866;49.094;11.900;2023-08-06T04:07:58;95371.81;;;16.87;100.00
11621;BME280;5866;49.094;11.900;2023-08-06T04:10:26;95384.63;;;16.85;100.00
11621;BME280;5866;49.094;11.900;2023-08-06T04:12:55;95379.13;;;16.80;100.00
11621;BME280;5866;49.094;11.900;2023-08-06T04:15:23;95380.97;;;16.79;100.00
11621;BME280;5866;49.094;11.900;2023-08-06T04:17:50;95380.59;;;16.76;100.00
11621;BME280;5866;49.094;11.900;2023-08-06T04:20:18;95374.97;;;16.84;100.00
11621;BME280;5866;49.094;11.900;2023-08-06T04:22:45;95371.84;;;16.62;100.00
11621;BME280;5866;49.094;11.900;2023-08-06T04:25:13;95356.94;;;16.48;100.00
11621;BME280;5866;49.094;11.900;2023-08-06T04:27:41;95353.63;;;16.52;100.00
11621;BME280;5866;49.094;11.900;2023-08-06T04:30:11;95362.59;;;16.83;100.00
11621;BME280;5866;49.094;11.900;2023-08-06T04:32:39;95365.91;;;16.60;100.00
11621;BME280;5866;49.094;11.900;2023-08-06T04:35:07;95368.44;;;16.48;100.00
11621;BME280;5866;49.094;11.900;2023-08-06T04:37:34;95377.19;;;16.37;100.00
11621;BME280;5866;49.094;11.900;2023-08-06T04:40:02;95370.44;;;16.59;100.00
11621;BME280;5866;49.094;11.900;2023-08-06T04:42:30;95373.38;;;16.51;100.00
11621;BME280;5866;49.094;11.900;2023-08-06T04:44:57;95367.69;;;16.41;100.00
11621;BME280;5866;49.094;11.900;2023-08-06T04:47:26;95364.53;;;16.94;100.00
11621;BME280;5866;49.094;11.900;2023-08-06T04:49:54;95352.34;;;16.98;100.00
11621;BME280;5866;49.094;11.900;2023-08-06T04:52:21;95345.94;;;17.17;100.00
11621;BME280;5866;49.094;11.900;2023-08-06T04:54:49;95347.69;;;17.41;100.00
11621;BME280;5866;49.094;11.900;2023-08-06T04:57:17;95349.66;;;17.52;100.00
11621;BME280;5866;49.094;11.900;2023-08-06T04:59:44;95344.56;;;17.62;100.00
11621;BME280;5866;49.094;11.900;2023-08-06T05:02:12;95345.91;;;17.71;100.00
11621;BME280;5866;49.094;11.900;2023-08-06T05:04:41;95340.63;;;17.65;100.00
11621;BME280;5866;49.094;11.900;2023-08-06T05:07:10;95341.28;;;17.78;100.00
11621;BME280;5866;49.094;11.900;2023-08-06T05:09:38;95341.47;;;17.77;100.00
11621;BME280;5866;49.094;11.900;2023-08-06T05:12:06;95339.94;;;17.99;100.00
11621;BME280;5866;49.094;11.900;2023-08-06T05:14:34;95338.78;;;18.06;100.00
11621;BME280;5866;49.094;11.900;2023-08-06T05:17:02;95348.81;;;17.70;100.00
11621;BME280;5866;49.094;11.900;2023-08-06T05:19:31;95356.97;;;17.27;100.00
11621;BME280;5866;49.094;11.900;2023-08-06T05:21:59;95355.09;;;17.09;100.00
11621;BME280;5866;49.094;11.900;2023-08-06T05:24:28;95354.13;;;16.86;100.00
11621;BME280;5866;49.094;11.900;2023-08-06T05:26:55;95357.94;;;16.96;100.00
11621;BME280;5866;49.094;11.900;2023-08-06T05:29:23;95363.16;;;16.66;100.00
11621;BME280;5866;49.094;11.900;2023-08-06T05:31:51;95365.28;;;16.83;100.00
11621;BME280;5866;49.094;11.900;2023-08-06T05:34:19;95364.84;;;17.04;100.00
11621;BME280;5866;49.094;11.900;2023-08-06T05:36:46;95359.94;;;17.19;100.00
11621;BME280;5866;49.094;11.900;2023-08-06T05:39:15;95349.25;;;17.67;100.00
11621;BME280;5866;49.094;11.900;2023-08-06T05:41:43;95351.25;;;17.71;100.00
11621;BME280;5866;49.094;11.900;2023-08-06T05:44:10;95356.28;;;17.31;100.00
11621;BME280;5866;49.094;11.900;2023-08-06T05:46:38;95359.13;;;17.55;100.00
11621;BME280;5866;49.094;11.900;2023-08-06T05:49:05;95351.78;;;17.62;100.00
11621;BME280;5866;49.094;11.900;2023-08-06T05:51:33;95350.28;;;17.95;100.00
11621;BME280;5866;49.094;11.900;2023-08-06T05:54:00;95349.19;;;18.67;100.00
11621;BME280;5866;49.094;11.900;2023-08-06T05:56:29;95338.03;;;19.33;100.00
11621;BME280;5866;49.094;11.900;2023-08-06T05:58:57;95334.25;;;20.30;100.00
11621;BME280;5866;49.094;11.900;2023-08-06T06:01:24;95329.97;;;20.18;100.00
11621;BME280;5866;49.094;11.900;2023-08-06T06:03:52;95330.94;;;20.12;100.00
11621;BME280;5866;49.094;11.900;2023-08-06T06:06:20;95325.41;;;19.22;100.00
11621;BME280;5866;49.094;11.900;2023-08-06T06:08:47;95327.09;;;18.77;100.00
11621;BME280;5866;49.094;11.900;2023-08-06T06:11:15;95338.03;;;18.41;100.00
11621;BME280;5866;49.094;11.900;2023-08-06T06:13:44;95338.91;;;18.76;100.00
11621;BME280;5866;49.094;11.900;2023-08-06T06:16:11;95341.94;;;18.68;100.00
11621;BME280;5866;49.094;11.900;2023-08-06T06:18:39;95346.63;;;18.19;100.00
11621;BME280;5866;49.094;11.900;2023-08-06T06:21:06;95342.56;;;17.87;100.00
11621;BME280;5866;49.094;11.900;2023-08-06T06:23:34;95343.75;;;17.91;100.00
11621;BME280;5866;49.094;11.900;2023-08-06T06:26:02;95337.31;;;18.34;100.00
11621;BME280;5866;49.094;11.900;2023-08-06T06:28:29;95336.44;;;18.86;100.00
11621;BME280;5866;49.094;11.900;2023-08-06T06:31:01;95325.13;;;19.58;100.00
11621;BME280;5866;49.094;11.900;2023-08-06T06:33:29;95317.38;;;20.07;100.00
11621;BME280;5866;49.094;11.900;2023-08-06T06:35:57;95317.88;;;20.04;100.00
11621;BME280;5866;49.094;11.900;2023-08-06T06:38:24;95315.44;;;19.46;100.00
11621;BME280;5866;49.094;11.900;2023-08-06T06:40:55;95323.13;;;18.91;100.00
11621;BME280;5866;49.094;11.900;2023-08-06T06:43:23;95315.28;;;18.66;100.00
11621;BME280;5866;49.094;11.900;2023-08-06T06:45:55;95303.41;;;19.25;100.00
11621;BME280;5866;49.094;11.900;2023-08-06T06:48:25;95303.56;;;19.87;100.00
11621;BME280;5866;49.094;11.900;2023-08-06T06:50:53;95300.34;;;21.22;100.00
11621;BME280;5866;49.094;11.900;2023-08-06T06:53:20;95295.66;;;22.36;90.27
11621;BME280;5866;49.094;11.900;2023-08-06T06:55:53;95296.00;;;22.45;87.05
11621;BME280;5866;49.094;11.900;2023-08-06T06:58:21;95292.34;;;22.29;86.14
11621;BME280;5866;49.094;11.900;2023-08-06T07:00:48;95297.19;;;22.27;85.31
11621;BME280;5866;49.094;11.900;2023-08-06T07:03:16;95291.91;;;23.16;78.41
11621;BME280;5866;49.094;11.900;2023-08-06T07:05:46;95292.22;;;22.77;79.85
11621;BME280;5866;49.094;11.900;2023-08-06T07:08:13;95288.06;;;23.02;77.26
11621;BME280;5866;49.094;11.900;2023-08-06T07:10:41;95283.81;;;23.26;78.03
11621;BME280;5866;49.094;11.900;2023-08-06T07:13:09;95284.84;;;23.66;75.94
11621;BME280;5866;49.094;11.900;2023-08-06T07:15:37;95284.94;;;24.07;75.33
11621;BME280;5866;49.094;11.900;2023-08-06T07:18:05;95287.06;;;23.90;76.54
11621;BME280;5866;49.094;11.900;2023-08-06T07:20:32;95299.13;;;24.79;66.99
11621;BME280;5866;49.094;11.900;2023-08-06T07:23:02;95291.00;;;22.00;79.74
11621;BME280;5866;49.094;11.900;2023-08-06T07:25:31;95296.44;;;20.75;92.41
11621;BME280;5866;49.094;11.900;2023-08-06T07:27:59;95299.91;;;21.30;91.42
11621;BME280;5866;49.094;11.900;2023-08-06T07:30:28;95285.47;;;21.63;89.45
11621;BME280;5866;49.094;11.900;2023-08-06T07:32:56;95291.94;;;21.84;86.66
11621;BME280;5866;49.094;11.900;2023-08-06T07:35:23;95293.03;;;21.01;91.29
11621;BME280;5866;49.094;11.900;2023-08-06T07:37:53;95295.50;;;20.48;100.00
11621;BME280;5866;49.094;11.900;2023-08-06T07:40:22;95296.28;;;20.32;100.00
11621;BME280;5866;49.094;11.900;2023-08-06T07:42:49;95291.06;;;19.52;100.00
11621;BME280;5866;49.094;11.900;2023-08-06T07:45:17;95293.94;;;17.95;100.00
11621;BME280;5866;49.094;11.900;2023-08-06T07:47:45;95298.38;;;17.90;100.00
11621;BME280;5866;49.094;11.900;2023-08-06T07:50:13;95296.28;;;18.45;100.00
11621;BME280;5866;49.094;11.900;2023-08-06T07:52:41;95294.09;;;19.16;100.00
11621;BME280;5866;49.094;11.900;2023-08-06T07:55:08;95277.47;;;20.48;100.00
11621;BME280;5866;49.094;11.900;2023-08-06T07:57:37;95270.09;;;20.44;100.00
11621;BME280;5866;49.094;11.900;2023-08-06T08:00:05;95277.59;;;19.24;100.00
11621;BME280;5866;49.094;11.900;2023-08-06T08:02:33;95279.94;;;18.58;100.00
11621;BME280;5866;49.094;11.900;2023-08-06T08:05:01;95276.75;;;18.61;100.00
11621;BME280;5866;49.094;11.900;2023-08-06T08:07:29;95279.06;;;18.92;100.00
11621;BME280;5866;49.094;11.900;2023-08-06T08:09:57;95273.72;;;19.43;100.00
11621;BME280;5866;49.094;11.900;2023-08-06T08:12:24;95269.84;;;19.67;100.00
11621;BME280;5866;49.094;11.900;2023-08-06T08:14:53;95261.78;;;18.99;100.00
11621;BME280;5866;49.094;11.900;2023-08-06T08:17:20;95265.41;;;19.90;100.00
11621;BME280;5866;49.094;11.900;2023-08-06T08:19:48;95257.56;;;20.71;99.41
11621;BME280;5866;49.094;11.900;2023-08-06T08:22:16;95255.84;;;20.82;97.77
11621;BME280;5866;49.094;11.900;2023-08-06T08:24:43;95257.78;;;19.70;100.00
11621;BME280;5866;49.094;11.900;2023-08-06T08:27:11;95267.00;;;20.52;96.60
11621;BME280;5866;49.094;11.900;2023-08-06T08:29:38;95245.13;;;20.48;95.01
11621;BME280;5866;49.094;11.900;2023-08-06T08:32:07;95249.97;;;20.68;95.59
11621;BME280;5866;49.094;11.900;2023-08-06T08:34:35;95240.94;;;22.19;84.38
11621;BME280;5866;49.094;11.900;2023-08-06T08:37:03;95234.84;;;22.02;77.24
11621;BME280;5866;49.094;11.900;2023-08-06T08:39:32;95242.03;;;21.65;78.74
11621;BME280;5866;49.094;11.900;2023-08-06T08:42:00;95243.22;;;21.04;85.14
11621;BME280;5866;49.094;11.900;2023-08-06T08:44:28;95242.91;;;19.51;98.67
11621;BME280;5866;49.094;11.900;2023-08-06T08:46:59;95246.50;;;20.34;96.74
11621;BME280;5866;49.094;11.900;2023-08-06T08:49:28;95249.06;;;21.17;85.81
11621;BME280;5866;49.094;11.900;2023-08-06T08:51:59;95244.50;;;21.01;84.12
11621;BME280;5866;49.094;11.900;2023-08-06T08:54:27;95231.59;;;22.00;81.05
11621;BME280;5866;49.094;11.900;2023-08-06T08:56:56;95233.69;;;22.25;73.44
11621;BME280;5866;49.094;11.900;2023-08-06T08:59:23;95239.88;;;20.09;91.00
11621;BME280;5866;49.094;11.900;2023-08-06T09:01:51;95238.19;;;20.52;91.12
11621;BME280;5866;49.094;11.900;2023-08-06T09:04:21;95242.84;;;20.24;93.05
11621;BME280;5866;49.094;11.900;2023-08-06T09:06:52;95249.47;;;20.33;89.85
11621;BME280;5866;49.094;11.900;2023-08-06T09:09:25;95230.19;;;20.41;89.00
11621;BME280;5866;49.094;11.900;2023-08-06T09:11:55;95220.06;;;20.70;87.36
11621;BME280;5866;49.094;11.900;2023-08-06T09:14:27;95234.66;;;21.55;84.69
11621;BME280;5866;49.094;11.900;2023-08-06T09:16:54;95225.38;;;22.73;69.84
11621;BME280;5866;49.094;11.900;2023-08-06T09:19:22;95219.72;;;23.26;66.58
11621;BME280;5866;49.094;11.900;2023-08-06T09:21:52;95240.69;;;23.56;63.26
11621;BME280;5866;49.094;11.900;2023-08-06T09:24:21;95242.00;;;20.07;85.25
11621;BME280;5866;49.094;11.900;2023-08-06T09:26:48;95247.50;;;17.83;100.00
11621;BME280;5866;49.094;11.900;2023-08-06T09:29:16;95249.97;;;17.96;100.00
11621;BME280;5866;49.094;11.900;2023-08-06T09:31:45;95265.47;;;17.23;100.00
11621;BME280;5866;49.094;11.900;2023-08-06T09:34:15;95263.06;;;16.00;100.00
11621;BME280;5866;49.094;11.900;2023-08-06T09:36:46;95281.03;;;15.62;100.00
11621;BME280;5866;49.094;11.900;2023-08-06T09:39:16;95287.34;;;15.74;100.00
11621;BME280;5866;49.094;11.900;2023-08-06T09:41:45;95271.63;;;15.53;100.00
11621;BME280;5866;49.094;11.900;2023-08-06T09:44:18;95266.44;;;15.27;100.00
11621;BME280;5866;49.094;11.900;2023-08-06T09:46:49;95276.66;;;15.36;100.00
11621;BME280;5866;49.094;11.900;2023-08-06T09:49:18;95252.63;;;15.30;100.00
11621;BME280;5866;49.094;11.900;2023-08-06T09:51:51;95274.00;;;16.23;100.00
11621;BME280;5866;49.094;11.900;2023-08-06T09:54:24;95256.66;;;16.50;100.00
11621;BME280;5866;49.094;11.900;2023-08-06T09:56:54;95263.81;;;16.07;100.00
11621;BME280;5866;49.094;11.900;2023-08-06T09:59:22;95267.13;;;16.52;100.00
11621;BME280;5866;49.094;11.900;2023-08-06T10:01:51;95255.00;;;18.04;100.00
11621;BME280;5866;49.094;11.900;2023-08-06T10:04:19;95249.56;;;19.48;100.00
11621;BME280;5866;49.094;11.900;2023-08-06T10:06:51;95244.63;;;18.89;100.00
11621;BME280;5866;49.094;11.900;2023-08-06T10:09:19;95256.34;;;17.13;100.00
11621;BME280;5866;49.094;11.900;2023-08-06T10:11:51;95287.22;;;16.36;100.00
11621;BME280;5866;49.094;11.900;2023-08-06T10:14:22;95301.06;;;15.77;100.00
11621;BME280;5866;49.094;11.900;2023-08-06T10:16:51;95287.81;;;15.64;100.00
11621;BME280;5866;49.094;11.900;2023-08-06T10:19:19;95287.56;;;14.84;100.00
11621;BME280;5866;49.094;11.900;2023-08-06T10:22:10;95299.66;;;14.99;100.00
11621;BME280;5866;49.094;11.900;2023-08-06T10:24:51;95284.63;;;14.98;100.00
11621;BME280;5866;49.094;11.900;2023-08-06T10:27:22;95280.75;;;15.39;100.00
11621;BME280;5866;49.094;11.900;2023-08-06T10:29:50;95283.34;;;16.32;100.00
11621;BME280;5866;49.094;11.900;2023-08-06T10:32:18;95252.91;;;16.69;100.00
11621;BME280;5866;49.094;11.900;2023-08-06T10:34:56;95251.97;;;18.01;100.00
11621;BME280;5866;49.094;11.900;2023-08-06T10:37:25;95249.41;;;18.87;100.00
11621;BME280;5866;49.094;11.900;2023-08-06T10:40:02;95243.25;;;16.87;100.00
11621;BME280;5866;49.094;11.900;2023-08-06T10:42:31;95264.78;;;15.26;100.00
11621;BME280;5866;49.094;11.900;2023-08-06T10:45:12;95276.69;;;15.30;100.00
11621;BME280;5866;49.094;11.900;2023-08-06T10:47:40;95275.19;;;15.47;100.00
11621;BME280;5866;49.094;11.900;2023-08-06T10:50:12;95276.47;;;16.43;100.00
11621;BME280;5866;49.094;11.900;2023-08-06T10:52:43;95263.28;;;17.50;100.00
11621;BME280;5866;49.094;11.900;2023-08-06T10:55:11;95244.81;;;17.42;100.00
11621;BME280;5866;49.094;11.900;2023-08-06T10:57:40;95249.91;;;18.61;100.00
11621;BME280;5866;49.094;11.900;2023-08-06T11:00:09;95225.97;;;19.11;100.00
11621;BME280;5866;49.094;11.900;2023-08-06T11:02:47;95239.97;;;18.61;100.00
11621;BME280;5866;49.094;11.900;2023-08-06T11:05:15;95223.97;;;18.78;100.00
11621;BME280;5866;49.094;11.900;2023-08-06T11:07:43;95228.63;;;18.71;100.00
11621;BME280;5866;49.094;11.900;2023-08-06T11:10:12;95231.22;;;18.54;100.00
11621;BME280;5866;49.094;11.900;2023-08-06T11:12:41;95223.41;;;18.53;100.00
11621;BME280;5866;49.094;11.900;2023-08-06T11:15:09;95229.47;;;18.13;100.00
11621;BME280;5866;49.094;11.900;2023-08-06T11:17:40;95229.47;;;18.37;100.00
11621;BME280;5866;49.094;11.900;2023-08-06T11:20:09;95234.22;;;18.00;100.00
11621;BME280;5866;49.094;11.900;2023-08-06T11:22:37;95238.44;;;16.34;100.00
11621;BME280;5866;49.094;11.900;2023-08-06T11:25:06;95270.66;;;16.03;100.00
11621;BME280;5866;49.094;11.900;2023-08-06T11:27:34;95246.03;;;15.70;100.00
11621;BME280;5866;49.094;11.900;2023-08-06T11:30:04;95248.91;;;16.18;100.00
11621;BME280;5866;49.094;11.900;2023-08-06T11:32:32;95253.84;;;16.21;100.00
11621;BME280;5866;49.094;11.900;2023-08-06T11:35:09;95249.91;;;17.14;100.00
11621;BME280;5866;49.094;11.900;2023-08-06T11:37:38;95237.16;;;17.98;100.00
11621;BME280;5866;49.094;11.900;2023-08-06T11:40:08;95234.84;;;18.60;100.00
11621;BME280;5866;49.094;11.900;2023-08-06T11:42:37;95235.09;;;17.59;100.00
11621;BME280;5866;49.094;11.900;2023-08-06T11:45:07;95254.03;;;16.98;100.00
11621;BME280;5866;49.094;11.900;2023-08-06T11:47:38;95249.75;;;16.36;100.00
11621;BME280;5866;49.094;11.900;2023-08-06T11:50:06;95243.19;;;16.93;100.00
11621;BME280;5866;49.094;11.900;2023-08-06T11:52:34;95239.47;;;16.94;100.00
11621;BME280;5866;49.094;11.900;2023-08-06T11:55:02;95222.94;;;17.27;100.00
11621;BME280;5866;49.094;11.900;2023-08-06T11:57:33;95226.63;;;18.78;100.00
11621;BME280;5866;49.094;11.900;2023-08-06T12:00:02;95204.19;;;18.84;100.00
11621;BME280;5866;49.094;11.900;2023-08-06T12:02:32;95205.75;;;18.34;100.00
11621;BME280;5866;49.094;11.900;2023-08-06T12:05:05;95219.69;;;18.31;100.00
11621;BME280;5866;49.094;11.900;2023-08-06T12:07:38;95215.81;;;18.03;100.00
11621;BME280;5866;49.094;11.900;2023-08-06T12:10:06;95211.50;;;18.49;100.00
11621;BME280;5866;49.094;11.900;2023-08-06T12:12:34;95214.72;;;19.53;100.00
11621;BME280;5866;49.094;11.900;2023-08-06T12:15:04;95196.06;;;18.67;100.00
11621;BME280;5866;49.094;11.900;2023-08-06T12:17:34;95211.22;;;18.85;100.00
11621;BME280;5866;49.094;11.900;2023-08-06T12:20:03;95201.56;;;17.91;100.00
11621;BME280;5866;49.094;11.900;2023-08-06T12:22:31;95199.09;;;18.24;100.00
11621;BME280;5866;49.094;11.900;2023-08-06T12:25:02;95209.16;;;18.64;100.00
11621;BME280;5866;49.094;11.900;2023-08-06T12:27:33;95208.81;;;18.02;100.00
11621;BME280;5866;49.094;11.900;2023-08-06T12:30:00;95220.16;;;17.04;100.00
11621;BME280;5866;49.094;11.900;2023-08-06T12:32:28;95254.34;;;15.55;100.00
11621;BME280;5866;49.094;11.900;2023-08-06T12:34:57;95267.47;;;15.26;100.00
11621;BME280;5866;49.094;11.900;2023-08-06T12:37:25;95278.19;;;15.12;100.00
11621;BME280;5866;49.094;11.900;2023-08-06T12:39:52;95280.16;;;15.37;100.00
11621;BME280;5866;49.094;11.900;2023-08-06T12:42:20;95264.88;;;15.50;100.00
11621;BME280;5866;49.094;11.900;2023-08-06T12:44:48;95269.78;;;15.53;100.00
11621;BME280;5866;49.094;11.900;2023-08-06T12:47:16;95277.09;;;15.96;100.00
11621;BME280;5866;49.094;11.900;2023-08-06T12:49:44;95273.53;;;15.77;100.00
11621;BME280;5866;49.094;11.900;2023-08-06T12:52:13;95272.44;;;16.58;100.00
11621;BME280;5866;49.094;11.900;2023-08-06T12:54:41;95273.81;;;17.63;100.00
11621;BME280;5866;49.094;11.900;2023-08-06T12:57:09;95256.41;;;18.18;100.00